sensor_id;sensor_type;location;lat;lon;timestamp;temperature;humidity
22145;DHT22;11238;48.730;11.566;2022-11-03T00:01:59;6.60;99.90
22145;DHT22;11238;48.730;11.566;2022-11-03T00:04:25;6.60;99.90
22145;DHT22;11238;48.730;11.566;2022-11-03T00:06:53;6.60;99.90
22145;DHT22;11238;48.730;11.566;2022-11-03T00:09:20;6.60;99.90
22145;DHT22;11238;48.730;11.566;2022-11-03T00:11:48;6.60;99.90
22145;DHT22;11238;48.730;11.566;2022-11-03T00:14:15;6.50;99.90
22145;DHT22;11238;48.730;11.566;2022-11-03T00:16:42;6.60;99.90
22145;DHT22;11238;48.730;11.566;2022-11-03T00:19:09;6.50;99.90
22145;DHT22;11238;48.730;11.566;2022-11-03T00:21:36;6.50;99.90
22145;DHT22;11238;48.730;11.566;2022-11-03T00:24:03;6.40;99.90
22145;DHT22;11238;48.730;11.566;2022-11-03T00:26:31;6.50;99.90
22145;DHT22;11238;48.730;11.566;2022-11-03T00:28:59;6.40;99.90
22145;DHT22;11238;48.730;11.566;2022-11-03T00:31:28;6.40;99.90
22145;DHT22;11238;48.730;11.566;2022-11-03T00:33:54;6.40;99.90
22145;DHT22;11238;48.730;11.566;2022-11-03T00:36:25;6.40;99.90
22145;DHT22;11238;48.730;11.566;2022-11-03T00:38:52;6.40;99.90
22145;DHT22;11238;48.730;11.566;2022-11-03T00:41:18;6.40;99.90
22145;DHT22;11238;48.730;11.566;2022-11-03T00:43:45;6.50;99.90
22145;DHT22;11238;48.730;11.566;2022-11-03T00:46:12;6.40;99.90
22145;DHT22;11238;48.730;11.566;2022-11-03T00:48:39;6.40;99.90
22145;DHT22;11238;48.730;11.566;2022-11-03T00:53:53;6.30;99.90
22145;DHT22;11238;48.730;11.566;2022-11-03T00:56:40;6.30;99.90
22145;DHT22;11238;48.730;11.566;2022-11-03T00:59:08;6.30;99.90
22145;DHT22;11238;48.730;11.566;2022-11-03T01:01:37;6.30;99.90
22145;DHT22;11238;48.730;11.566;2022-11-03T01:04:05;6.30;99.90
22145;DHT22;11238;48.730;11.566;2022-11-03T01:06:52;6.20;99.90
22145;DHT22;11238;48.730;11.566;2022-11-03T01:09:24;6.30;99.90
22145;DHT22;11238;48.730;11.566;2022-11-03T01:12:07;6.20;99.90
22145;DHT22;11238;48.730;11.566;2022-11-03T01:14:41;6.20;99.90
22145;DHT22;11238;48.730;11.566;2022-11-03T01:17:09;6.10;99.90
22145;DHT22;11238;48.730;11.566;2022-11-03T01:19:37;6.20;99.90
22145;DHT22;11238;48.730;11.566;2022-11-03T01:22:03;6.20;99.90
22145;DHT22;11238;48.730;11.566;2022-11-03T01:24:29;6.20;99.90
22145;DHT22;11238;48.730;11.566;2022-11-03T01:26:55;6.10;99.90
22145;DHT22;11238;48.730;11.566;2022-11-03T01:29:20;6.10;99.90
22145;DHT22;11238;48.730;11.566;2022-11-03T01:31:46;6.10;99.90
22145;DHT22;11238;48.730;11.566;2022-11-03T01:34:16;6.20;99.90
22145;DHT22;11238;48.730;11.566;2022-11-03T01:36:43;6.20;99.90
22145;DHT22;11238;48.730;11.566;2022-11-03T01:39:11;6.10;99.90
22145;DHT22;11238;48.730;11.566;2022-11-03T01:41:38;6.10;99.90
22145;DHT22;11238;48.730;11.566;2022-11-03T01:44:28;6.10;99.90
22145;DHT22;11238;48.730;11.566;2022-11-03T01:49:49;6.10;99.90
22145;DHT22;11238;48.730;11.566;2022-11-03T01:55:04;6.10;99.90
22145;DHT22;11238;48.730;11.566;2022-11-03T01:57:54;6.10;99.90
22145;DHT22;11238;48.730;11.566;2022-11-03T02:00:21;6.10;99.90
22145;DHT22;11238;48.730;11.566;2022-11-03T02:02:47;6.10;99.90
22145;DHT22;11238;48.730;11.566;2022-11-03T02:05:17;6.10;99.90
22145;DHT22;11238;48.730;11.566;2022-11-03T02:07:49;6.10;99.90
22145;DHT22;11238;48.730;11.566;2022-11-03T02:10:18;6.00;99.90
22145;DHT22;11238;48.730;11.566;2022-11-03T02:12:45;6.00;99.90
22145;DHT22;11238;48.730;11.566;2022-11-03T02:15:14;6.00;99.90
22145;DHT22;11238;48.730;11.566;2022-11-03T02:17:41;6.00;99.90
22145;DHT22;11238;48.730;11.566;2022-11-03T02:20:17;6.00;99.90
22145;DHT22;11238;48.730;11.566;2022-11-03T02:23:19;6.00;99.90
22145;DHT22;11238;48.730;11.566;2022-11-03T02:25:51;6.00;99.90
22145;DHT22;11238;48.730;11.566;2022-11-03T02:28:23;5.90;99.90
22145;DHT22;11238;48.730;11.566;2022-11-03T02:31:15;5.90;99.90
22145;DHT22;11238;48.730;11.566;2022-11-03T02:36:23;5.90;99.90
22145;DHT22;11238;48.730;11.566;2022-11-03T02:39:14;6.00;99.90
22145;DHT22;11238;48.730;11.566;2022-11-03T02:41:41;5.90;99.90
22145;DHT22;11238;48.730;11.566;2022-11-03T02:44:16;6.00;99.90
22145;DHT22;11238;48.730;11.566;2022-11-03T02:46:45;6.00;99.90
22145;DHT22;11238;48.730;11.566;2022-11-03T02:49:11;6.00;99.90
22145;DHT22;11238;48.730;11.566;2022-11-03T02:51:37;5.90;99.90
22145;DHT22;11238;48.730;11.566;2022-11-03T02:56:42;5.90;99.90
22145;DHT22;11238;48.730;11.566;2022-11-03T02:59:12;5.90;99.90
22145;DHT22;11238;48.730;11.566;2022-11-03T03:01:45;5.80;99.90
22145;DHT22;11238;48.730;11.566;2022-11-03T03:04:39;5.80;99.90
22145;DHT22;11238;48.730;11.566;2022-11-03T03:07:09;5.80;99.90
22145;DHT22;11238;48.730;11.566;2022-11-03T03:09:43;5.70;99.90
22145;DHT22;11238;48.730;11.566;2022-11-03T03:12:11;5.70;99.90
22145;DHT22;11238;48.730;11.566;2022-11-03T03:14:39;5.70;99.90
22145;DHT22;11238;48.730;11.566;2022-11-03T03:17:13;5.70;99.90
22145;DHT22;11238;48.730;11.566;2022-11-03T03:22:16;5.70;99.90
22145;DHT22;11238;48.730;11.566;2022-11-03T03:24:52;5.70;99.90
22145;DHT22;11238;48.730;11.566;2022-11-03T03:27:23;5.70;99.90
22145;DHT22;11238;48.730;11.566;2022-11-03T03:29:53;5.70;99.90
22145;DHT22;11238;48.730;11.566;2022-11-03T03:32:22;5.70;99.90
22145;DHT22;11238;48.730;11.566;2022-11-03T03:34:50;5.70;99.90
22145;DHT22;11238;48.730;11.566;2022-11-03T03:37:18;5.70;99.90
22145;DHT22;11238;48.730;11.566;2022-11-03T03:39:52;5.70;99.90
22145;DHT22;11238;48.730;11.566;2022-11-03T03:42:21;5.70;99.90
22145;DHT22;11238;48.730;11.566;2022-11-03T03:44:50;5.70;99.90
22145;DHT22;11238;48.730;11.566;2022-11-03T03:47:29;5.70;99.90
22145;DHT22;11238;48.730;11.566;2022-11-03T03:49:56;5.70;99.90
22145;DHT22;11238;48.730;11.566;2022-11-03T03:52:22;5.60;99.90
22145;DHT22;11238;48.730;11.566;2022-11-03T03:54:48;5.70;99.90
22145;DHT22;11238;48.730;11.566;2022-11-03T03:57:15;5.70;99.90
22145;DHT22;11238;48.730;11.566;2022-11-03T03:59:42;5.70;99.90
22145;DHT22;11238;48.730;11.566;2022-11-03T04:02:09;5.70;99.90
22145;DHT22;11238;48.730;11.566;2022-11-03T04:04:35;5.70;99.90
22145;DHT22;11238;48.730;11.566;2022-11-03T04:07:01;5.70;99.90
22145;DHT22;11238;48.730;11.566;2022-11-03T04:09:45;5.70;99.90
22145;DHT22;11238;48.730;11.566;2022-11-03T04:12:11;5.70;99.90
22145;DHT22;11238;48.730;11.566;2022-11-03T04:14:55;5.70;99.90
22145;DHT22;11238;48.730;11.566;2022-11-03T04:17:44;5.60;99.90
22145;DHT22;11238;48.730;11.566;2022-11-03T04:20:29;5.60;99.90
22145;DHT22;11238;48.730;11.566;2022-11-03T04:23:14;5.60;99.90
22145;DHT22;11238;48.730;11.566;2022-11-03T04:25:41;5.60;99.90
22145;DHT22;11238;48.730;11.566;2022-11-03T04:28:10;5.60;99.90
22145;DHT22;11238;48.730;11.566;2022-11-03T04:30:37;5.60;99.90
22145;DHT22;11238;48.730;11.566;2022-11-03T04:33:09;5.60;99.90
22145;DHT22;11238;48.730;11.566;2022-11-03T04:35:36;5.60;99.90
22145;DHT22;11238;48.730;11.566;2022-11-03T04:38:28;5.70;99.90
22145;DHT22;11238;48.730;11.566;2022-11-03T04:40:58;5.70;99.90
22145;DHT22;11238;48.730;11.566;2022-11-03T04:43:32;5.70;99.90
22145;DHT22;11238;48.730;11.566;2022-11-03T04:45:59;5.70;99.90
22145;DHT22;11238;48.730;11.566;2022-11-03T04:48:26;5.70;99.90
22145;DHT22;11238;48.730;11.566;2022-11-03T04:50:54;5.70;99.90
22145;DHT22;11238;48.730;11.566;2022-11-03T04:53:22;5.80;99.90
22145;DHT22;11238;48.730;11.566;2022-11-03T04:55:52;5.80;99.90
22145;DHT22;11238;48.730;11.566;2022-11-03T04:58:25;5.80;99.90
22145;DHT22;11238;48.730;11.566;2022-11-03T05:00:53;5.80;99.90
22145;DHT22;11238;48.730;11.566;2022-11-03T05:03:23;5.80;99.90
22145;DHT22;11238;48.730;11.566;2022-11-03T05:05:50;5.80;99.90
22145;DHT22;11238;48.730;11.566;2022-11-03T05:08:20;5.80;99.90
22145;DHT22;11238;48.730;11.566;2022-11-03T05:10:47;5.90;99.90
22145;DHT22;11238;48.730;11.566;2022-11-03T05:13:20;5.90;99.90
22145;DHT22;11238;48.730;11.566;2022-11-03T05:15:48;5.90;99.90
22145;DHT22;11238;48.730;11.566;2022-11-03T05:20:47;5.90;99.90
22145;DHT22;11238;48.730;11.566;2022-11-03T05:23:13;5.80;99.90
22145;DHT22;11238;48.730;11.566;2022-11-03T05:25:42;5.90;99.90
22145;DHT22;11238;48.730;11.566;2022-11-03T05:28:33;5.90;99.90
22145;DHT22;11238;48.730;11.566;2022-11-03T05:31:01;5.90;99.90
22145;DHT22;11238;48.730;11.566;2022-11-03T05:33:39;5.90;99.90
22145;DHT22;11238;48.730;11.566;2022-11-03T05:36:12;5.80;99.90
22145;DHT22;11238;48.730;11.566;2022-11-03T05:38:39;5.80;99.90
22145;DHT22;11238;48.730;11.566;2022-11-03T05:41:07;5.90;99.90
22145;DHT22;11238;48.730;11.566;2022-11-03T05:43:36;5.90;99.90
22145;DHT22;11238;48.730;11.566;2022-11-03T05:46:02;5.90;99.90
22145;DHT22;11238;48.730;11.566;2022-11-03T05:48:37;5.90;99.90
22145;DHT22;11238;48.730;11.566;2022-11-03T05:51:18;5.90;99.90
22145;DHT22;11238;48.730;11.566;2022-11-03T05:53:46;5.90;99.90
22145;DHT22;11238;48.730;11.566;2022-11-03T05:56:18;5.90;99.90
22145;DHT22;11238;48.730;11.566;2022-11-03T05:58:45;5.90;99.90
22145;DHT22;11238;48.730;11.566;2022-11-03T06:01:28;6.00;99.90
22145;DHT22;11238;48.730;11.566;2022-11-03T06:03:56;5.90;99.90
22145;DHT22;11238;48.730;11.566;2022-11-03T06:06:27;6.00;99.90
22145;DHT22;11238;48.730;11.566;2022-11-03T06:08:55;6.00;99.90
22145;DHT22;11238;48.730;11.566;2022-11-03T06:11:27;6.00;99.90
22145;DHT22;11238;48.730;11.566;2022-11-03T06:13:56;5.90;99.90
22145;DHT22;11238;48.730;11.566;2022-11-03T06:16:43;5.90;99.90
22145;DHT22;11238;48.730;11.566;2022-11-03T06:19:34;5.90;99.90
22145;DHT22;11238;48.730;11.566;2022-11-03T06:22:07;5.80;99.90
22145;DHT22;11238;48.730;11.566;2022-11-03T06:24:36;5.80;99.90
22145;DHT22;11238;48.730;11.566;2022-11-03T06:27:02;5.80;99.90
22145;DHT22;11238;48.730;11.566;2022-11-03T06:29:30;5.80;99.90
22145;DHT22;11238;48.730;11.566;2022-11-03T06:31:57;5.80;99.90
22145;DHT22;11238;48.730;11.566;2022-11-03T06:34:55;5.80;99.90
22145;DHT22;11238;48.730;11.566;2022-11-03T06:37:25;5.90;99.90
22145;DHT22;11238;48.730;11.566;2022-11-03T06:42:44;6.00;99.90
22145;DHT22;11238;48.730;11.566;2022-11-03T06:45:22;6.00;99.90
22145;DHT22;11238;48.730;11.566;2022-11-03T06:47:49;6.00;99.90
22145;DHT22;11238;48.730;11.566;2022-11-03T06:50:27;6.10;99.90
22145;DHT22;11238;48.730;11.566;2022-11-03T06:52:55;6.10;99.90
22145;DHT22;11238;48.730;11.566;2022-11-03T06:55:31;6.00;99.90
22145;DHT22;11238;48.730;11.566;2022-11-03T06:58:12;6.00;99.90
22145;DHT22;11238;48.730;11.566;2022-11-03T07:00:40;6.10;99.90
22145;DHT22;11238;48.730;11.566;2022-11-03T07:05:41;6.10;99.90
22145;DHT22;11238;48.730;11.566;2022-11-03T07:08:17;6.10;99.90
22145;DHT22;11238;48.730;11.566;2022-11-03T07:10:44;6.10;99.90
22145;DHT22;11238;48.730;11.566;2022-11-03T07:13:17;6.10;99.90
22145;DHT22;11238;48.730;11.566;2022-11-03T07:15:44;6.10;99.90
22145;DHT22;11238;48.730;11.566;2022-11-03T07:18:32;6.00;99.90
22145;DHT22;11238;48.730;11.566;2022-11-03T07:21:04;6.10;99.90
22145;DHT22;11238;48.730;11.566;2022-11-03T07:23:31;6.10;99.90
22145;DHT22;11238;48.730;11.566;2022-11-03T07:25:59;6.10;99.90
22145;DHT22;11238;48.730;11.566;2022-11-03T07:28:30;6.10;99.90
22145;DHT22;11238;48.730;11.566;2022-11-03T07:30:59;6.20;99.90
22145;DHT22;11238;48.730;11.566;2022-11-03T07:33:28;6.20;99.90
22145;DHT22;11238;48.730;11.566;2022-11-03T07:35:55;6.30;99.90
22145;DHT22;11238;48.730;11.566;2022-11-03T07:38:23;6.30;99.90
22145;DHT22;11238;48.730;11.566;2022-11-03T07:40:51;6.30;99.90
22145;DHT22;11238;48.730;11.566;2022-11-03T07:43:19;6.30;99.90
22145;DHT22;11238;48.730;11.566;2022-11-03T07:46:08;6.30;99.90
22145;DHT22;11238;48.730;11.566;2022-11-03T07:48:50;6.40;99.90
22145;DHT22;11238;48.730;11.566;2022-11-03T07:51:37;6.40;99.90
22145;DHT22;11238;48.730;11.566;2022-11-03T07:54:15;6.40;99.90
22145;DHT22;11238;48.730;11.566;2022-11-03T07:56:53;6.40;99.90
22145;DHT22;11238;48.730;11.566;2022-11-03T07:59:55;6.50;99.90
22145;DHT22;11238;48.730;11.566;2022-11-03T08:04:42;6.60;99.90
22145;DHT22;11238;48.730;11.566;2022-11-03T08:07:08;6.60;99.90
22145;DHT22;11238;48.730;11.566;2022-11-03T08:09:34;6.60;99.90
22145;DHT22;11238;48.730;11.566;2022-11-03T08:11:59;6.70;99.90
22145;DHT22;11238;48.730;11.566;2022-11-03T08:14:26;6.70;99.90
22145;DHT22;11238;48.730;11.566;2022-11-03T08:16:52;6.70;99.90
22145;DHT22;11238;48.730;11.566;2022-11-03T08:19:18;6.80;99.90
22145;DHT22;11238;48.730;11.566;2022-11-03T08:21:44;6.90;99.90
22145;DHT22;11238;48.730;11.566;2022-11-03T08:24:10;6.90;99.90
22145;DHT22;11238;48.730;11.566;2022-11-03T08:26:36;7.00;99.90
22145;DHT22;11238;48.730;11.566;2022-11-03T08:29:02;7.00;99.90
22145;DHT22;11238;48.730;11.566;2022-11-03T08:31:27;6.90;99.90
22145;DHT22;11238;48.730;11.566;2022-11-03T08:33:53;6.90;99.90
22145;DHT22;11238;48.730;11.566;2022-11-03T08:36:19;7.00;99.90
22145;DHT22;11238;48.730;11.566;2022-11-03T08:38:45;7.00;99.90
22145;DHT22;11238;48.730;11.566;2022-11-03T08:41:10;7.10;99.90
22145;DHT22;11238;48.730;11.566;2022-11-03T08:43:36;7.10;99.90
22145;DHT22;11238;48.730;11.566;2022-11-03T08:46:02;7.20;99.90
22145;DHT22;11238;48.730;11.566;2022-11-03T08:48:28;7.30;99.90
22145;DHT22;11238;48.730;11.566;2022-11-03T08:50:54;7.40;99.90
22145;DHT22;11238;48.730;11.566;2022-11-03T08:53:25;7.50;99.90
22145;DHT22;11238;48.730;11.566;2022-11-03T08:55:54;7.50;99.90
22145;DHT22;11238;48.730;11.566;2022-11-03T08:58:21;7.50;99.90
22145;DHT22;11238;48.730;11.566;2022-11-03T09:00:47;7.50;99.90
22145;DHT22;11238;48.730;11.566;2022-11-03T09:03:13;7.50;99.90
22145;DHT22;11238;48.730;11.566;2022-11-03T09:05:40;7.50;99.90
22145;DHT22;11238;48.730;11.566;2022-11-03T09:08:06;7.50;99.90
22145;DHT22;11238;48.730;11.566;2022-11-03T09:10:32;7.50;99.90
22145;DHT22;11238;48.730;11.566;2022-11-03T09:12:59;7.60;99.90
22145;DHT22;11238;48.730;11.566;2022-11-03T09:15:24;7.60;99.90
22145;DHT22;11238;48.730;11.566;2022-11-03T09:17:51;7.70;99.90
22145;DHT22;11238;48.730;11.566;2022-11-03T09:20:16;7.80;99.90
22145;DHT22;11238;48.730;11.566;2022-11-03T09:22:43;7.80;99.90
22145;DHT22;11238;48.730;11.566;2022-11-03T09:25:09;7.90;99.90
22145;DHT22;11238;48.730;11.566;2022-11-03T09:27:34;7.90;99.90
22145;DHT22;11238;48.730;11.566;2022-11-03T09:30:00;7.90;99.90
22145;DHT22;11238;48.730;11.566;2022-11-03T09:32:26;8.00;99.90
22145;DHT22;11238;48.730;11.566;2022-11-03T09:34:51;8.10;99.90
22145;DHT22;11238;48.730;11.566;2022-11-03T09:37:17;8.10;99.90
22145;DHT22;11238;48.730;11.566;2022-11-03T09:39:43;8.20;99.90
22145;DHT22;11238;48.730;11.566;2022-11-03T09:42:12;8.20;99.90
22145;DHT22;11238;48.730;11.566;2022-11-03T09:44:38;8.20;99.90
22145;DHT22;11238;48.730;11.566;2022-11-03T09:47:04;8.20;99.90
22145;DHT22;11238;48.730;11.566;2022-11-03T09:49:32;8.20;99.90
22145;DHT22;11238;48.730;11.566;2022-11-03T09:52:02;8.30;99.90
22145;DHT22;11238;48.730;11.566;2022-11-03T09:54:29;8.20;99.90
22145;DHT22;11238;48.730;11.566;2022-11-03T09:57:11;8.30;99.90
22145;DHT22;11238;48.730;11.566;2022-11-03T09:59:37;8.40;99.90
22145;DHT22;11238;48.730;11.566;2022-11-03T10:02:25;8.50;99.90
22145;DHT22;11238;48.730;11.566;2022-11-03T10:04:52;8.50;99.90
22145;DHT22;11238;48.730;11.566;2022-11-03T10:07:19;8.60;99.90
22145;DHT22;11238;48.730;11.566;2022-11-03T10:09:48;8.50;99.90
22145;DHT22;11238;48.730;11.566;2022-11-03T10:12:15;8.70;99.90
22145;DHT22;11238;48.730;11.566;2022-11-03T10:14:43;8.60;99.90
22145;DHT22;11238;48.730;11.566;2022-11-03T10:17:20;8.60;99.90
22145;DHT22;11238;48.730;11.566;2022-11-03T10:19:48;8.70;99.90
22145;DHT22;11238;48.730;11.566;2022-11-03T10:22:15;8.80;99.90
22145;DHT22;11238;48.730;11.566;2022-11-03T10:24:44;8.90;99.90
22145;DHT22;11238;48.730;11.566;2022-11-03T10:27:24;9.10;99.90
22145;DHT22;11238;48.730;11.566;2022-11-03T10:30:11;9.20;99.90
22145;DHT22;11238;48.730;11.566;2022-11-03T10:32:37;9.20;99.90
22145;DHT22;11238;48.730;11.566;2022-11-03T10:35:35;9.20;99.90
22145;DHT22;11238;48.730;11.566;2022-11-03T10:40:49;9.20;99.90
22145;DHT22;11238;48.730;11.566;2022-11-03T10:43:15;9.30;99.90
22145;DHT22;11238;48.730;11.566;2022-11-03T10:45:41;9.30;99.90
22145;DHT22;11238;48.730;11.566;2022-11-03T10:48:09;9.30;99.90
22145;DHT22;11238;48.730;11.566;2022-11-03T10:50:38;9.40;99.90
22145;DHT22;11238;48.730;11.566;2022-11-03T10:53:07;9.30;99.90
22145;DHT22;11238;48.730;11.566;2022-11-03T10:55:39;9.40;99.90
22145;DHT22;11238;48.730;11.566;2022-11-03T10:58:05;9.40;99.90
22145;DHT22;11238;48.730;11.566;2022-11-03T11:00:32;9.50;99.90
22145;DHT22;11238;48.730;11.566;2022-11-03T11:02:59;9.60;99.90
22145;DHT22;11238;48.730;11.566;2022-11-03T11:05:25;9.60;99.90
22145;DHT22;11238;48.730;11.566;2022-11-03T11:07:52;9.60;99.90
22145;DHT22;11238;48.730;11.566;2022-11-03T11:10:26;9.70;99.90
22145;DHT22;11238;48.730;11.566;2022-11-03T11:13:26;9.70;99.90
22145;DHT22;11238;48.730;11.566;2022-11-03T11:20:55;10.00;99.90
22145;DHT22;11238;48.730;11.566;2022-11-03T11:28:40;9.80;99.90
22145;DHT22;11238;48.730;11.566;2022-11-03T11:31:31;9.90;99.90
22145;DHT22;11238;48.730;11.566;2022-11-03T11:36:44;10.10;99.90
22145;DHT22;11238;48.730;11.566;2022-11-03T11:42:08;10.10;99.90
22145;DHT22;11238;48.730;11.566;2022-11-03T11:52:44;10.20;99.90
22145;DHT22;11238;48.730;11.566;2022-11-03T11:55:21;10.20;99.90
22145;DHT22;11238;48.730;11.566;2022-11-03T11:57:50;10.40;99.90
22145;DHT22;11238;48.730;11.566;2022-11-03T12:00:22;10.40;99.90
22145;DHT22;11238;48.730;11.566;2022-11-03T12:02:51;10.50;99.90
22145;DHT22;11238;48.730;11.566;2022-11-03T12:05:27;10.40;99.90
22145;DHT22;11238;48.730;11.566;2022-11-03T12:07:55;10.30;99.90
22145;DHT22;11238;48.730;11.566;2022-11-03T12:10:27;10.30;99.90
22145;DHT22;11238;48.730;11.566;2022-11-03T12:12:55;10.30;99.90
22145;DHT22;11238;48.730;11.566;2022-11-03T12:15:46;10.20;99.90
22145;DHT22;11238;48.730;11.566;2022-11-03T12:18:38;10.10;99.90
22145;DHT22;11238;48.730;11.566;2022-11-03T12:21:13;10.10;99.90
22145;DHT22;11238;48.730;11.566;2022-11-03T12:23:56;10.00;99.90
22145;DHT22;11238;48.730;11.566;2022-11-03T12:28:54;10.00;99.90
22145;DHT22;11238;48.730;11.566;2022-11-03T12:31:20;10.10;99.90
22145;DHT22;11238;48.730;11.566;2022-11-03T12:33:46;10.20;99.90
22145;DHT22;11238;48.730;11.566;2022-11-03T12:36:12;10.30;99.90
22145;DHT22;11238;48.730;11.566;2022-11-03T12:38:38;10.20;99.90
22145;DHT22;11238;48.730;11.566;2022-11-03T12:41:04;10.20;99.90
22145;DHT22;11238;48.730;11.566;2022-11-03T12:43:49;10.10;99.90
22145;DHT22;11238;48.730;11.566;2022-11-03T12:46:16;10.00;99.90
22145;DHT22;11238;48.730;11.566;2022-11-03T12:48:46;9.90;99.90
22145;DHT22;11238;48.730;11.566;2022-11-03T12:51:18;9.90;99.90
22145;DHT22;11238;48.730;11.566;2022-11-03T12:53:45;10.00;99.90
22145;DHT22;11238;48.730;11.566;2022-11-03T12:56:12;10.00;99.90
22145;DHT22;11238;48.730;11.566;2022-11-03T12:58:39;10.00;99.90
22145;DHT22;11238;48.730;11.566;2022-11-03T13:01:06;10.00;99.90
22145;DHT22;11238;48.730;11.566;2022-11-03T13:03:32;10.00;99.90
22145;DHT22;11238;48.730;11.566;2022-11-03T13:05:59;9.90;99.90
22145;DHT22;11238;48.730;11.566;2022-11-03T13:08:26;10.10;99.90
22145;DHT22;11238;48.730;11.566;2022-11-03T13:10:52;10.10;99.90
22145;DHT22;11238;48.730;11.566;2022-11-03T13:13:18;10.20;99.90
22145;DHT22;11238;48.730;11.566;2022-11-03T13:15:45;10.10;99.90
22145;DHT22;11238;48.730;11.566;2022-11-03T13:18:11;10.10;99.90
22145;DHT22;11238;48.730;11.566;2022-11-03T13:20:36;10.10;99.90
22145;DHT22;11238;48.730;11.566;2022-11-03T13:23:03;10.30;99.90
22145;DHT22;11238;48.730;11.566;2022-11-03T13:25:29;10.20;99.90
22145;DHT22;11238;48.730;11.566;2022-11-03T13:27:56;10.30;99.90
22145;DHT22;11238;48.730;11.566;2022-11-03T13:30:23;10.30;99.90
22145;DHT22;11238;48.730;11.566;2022-11-03T13:32:50;10.30;99.90
22145;DHT22;11238;48.730;11.566;2022-11-03T13:35:16;10.20;99.90
22145;DHT22;11238;48.730;11.566;2022-11-03T13:37:42;10.30;99.90
22145;DHT22;11238;48.730;11.566;2022-11-03T13:40:10;10.40;99.90
22145;DHT22;11238;48.730;11.566;2022-11-03T13:42:37;10.30;99.90
22145;DHT22;11238;48.730;11.566;2022-11-03T13:45:04;10.40;99.90
22145;DHT22;11238;48.730;11.566;2022-11-03T13:47:30;10.40;99.90
22145;DHT22;11238;48.730;11.566;2022-11-03T13:49:56;10.50;99.90
22145;DHT22;11238;48.730;11.566;2022-11-03T13:52:22;10.50;99.90
22145;DHT22;11238;48.730;11.566;2022-11-03T13:54:49;10.50;99.90
22145;DHT22;11238;48.730;11.566;2022-11-03T13:57:17;10.50;99.90
22145;DHT22;11238;48.730;11.566;2022-11-03T13:59:43;10.50;99.90
22145;DHT22;11238;48.730;11.566;2022-11-03T14:02:09;10.40;99.90
22145;DHT22;11238;48.730;11.566;2022-11-03T14:04:36;10.40;99.90
22145;DHT22;11238;48.730;11.566;2022-11-03T14:07:04;10.30;99.90
22145;DHT22;11238;48.730;11.566;2022-11-03T14:09:30;10.20;99.90
22145;DHT22;11238;48.730;11.566;2022-11-03T14:11:57;10.20;99.90
22145;DHT22;11238;48.730;11.566;2022-11-03T14:14:41;10.10;99.90
22145;DHT22;11238;48.730;11.566;2022-11-03T14:17:07;10.10;99.90
22145;DHT22;11238;48.730;11.566;2022-11-03T14:19:34;10.10;99.90
22145;DHT22;11238;48.730;11.566;2022-11-03T14:22:01;10.10;99.90
22145;DHT22;11238;48.730;11.566;2022-11-03T14:24:27;10.00;99.90
22145;DHT22;11238;48.730;11.566;2022-11-03T14:26:53;10.10;99.90
22145;DHT22;11238;48.730;11.566;2022-11-03T14:29:19;10.00;99.90
22145;DHT22;11238;48.730;11.566;2022-11-03T14:31:44;10.00;99.90
22145;DHT22;11238;48.730;11.566;2022-11-03T14:34:10;10.00;99.90
22145;DHT22;11238;48.730;11.566;2022-11-03T14:36:36;9.80;99.90
22145;DHT22;11238;48.730;11.566;2022-11-03T14:39:03;9.90;99.90
22145;DHT22;11238;48.730;11.566;2022-11-03T14:41:29;9.90;99.90
22145;DHT22;11238;48.730;11.566;2022-11-03T14:44:13;9.80;99.90
22145;DHT22;11238;48.730;11.566;2022-11-03T14:46:39;9.80;99.90
22145;DHT22;11238;48.730;11.566;2022-11-03T14:49:05;9.80;99.90
22145;DHT22;11238;48.730;11.566;2022-11-03T14:51:31;9.70;99.90
22145;DHT22;11238;48.730;11.566;2022-11-03T14:53:57;9.60;99.90
22145;DHT22;11238;48.730;11.566;2022-11-03T14:56:23;9.60;99.90
22145;DHT22;11238;48.730;11.566;2022-11-03T14:58:49;9.60;99.90
22145;DHT22;11238;48.730;11.566;2022-11-03T15:01:15;9.70;99.90
22145;DHT22;11238;48.730;11.566;2022-11-03T15:03:41;9.80;99.90
22145;DHT22;11238;48.730;11.566;2022-11-03T15:06:09;9.80;99.90
22145;DHT22;11238;48.730;11.566;2022-11-03T15:08:35;9.90;99.90
22145;DHT22;11238;48.730;11.566;2022-11-03T15:11:02;9.90;99.90
22145;DHT22;11238;48.730;11.566;2022-11-03T15:13:29;9.90;99.90
22145;DHT22;11238;48.730;11.566;2022-11-03T15:15:56;9.90;99.90
22145;DHT22;11238;48.730;11.566;2022-11-03T15:18:24;9.90;99.90
22145;DHT22;11238;48.730;11.566;2022-11-03T15:20:59;10.00;99.90
22145;DHT22;11238;48.730;11.566;2022-11-03T15:23:25;9.90;99.90
22145;DHT22;11238;48.730;11.566;2022-11-03T15:25:51;9.80;99.90
22145;DHT22;11238;48.730;11.566;2022-11-03T15:28:17;9.80;99.90
22145;DHT22;11238;48.730;11.566;2022-11-03T15:30:49;9.70;99.90
22145;DHT22;11238;48.730;11.566;2022-11-03T15:33:30;9.80;99.90
22145;DHT22;11238;48.730;11.566;2022-11-03T15:35:55;9.70;99.90
22145;DHT22;11238;48.730;11.566;2022-11-03T15:38:21;9.70;99.90
22145;DHT22;11238;48.730;11.566;2022-11-03T15:40:47;9.70;99.90
22145;DHT22;11238;48.730;11.566;2022-11-03T15:43:13;9.60;99.90
22145;DHT22;11238;48.730;11.566;2022-11-03T15:45:39;9.60;99.90
22145;DHT22;11238;48.730;11.566;2022-11-03T15:48:05;9.60;99.90
22145;DHT22;11238;48.730;11.566;2022-11-03T15:50:34;9.60;99.90
22145;DHT22;11238;48.730;11.566;2022-11-03T15:52:59;9.70;99.90
22145;DHT22;11238;48.730;11.566;2022-11-03T15:55:25;9.70;99.90
22145;DHT22;11238;48.730;11.566;2022-11-03T15:57:51;9.70;99.90
22145;DHT22;11238;48.730;11.566;2022-11-03T16:00:18;9.60;99.90
22145;DHT22;11238;48.730;11.566;2022-11-03T16:02:46;9.70;99.90
22145;DHT22;11238;48.730;11.566;2022-11-03T16:05:13;9.60;99.90
22145;DHT22;11238;48.730;11.566;2022-11-03T16:07:39;9.60;99.90
22145;DHT22;11238;48.730;11.566;2022-11-03T16:10:05;9.70;99.90
22145;DHT22;11238;48.730;11.566;2022-11-03T16:12:31;9.60;99.90
22145;DHT22;11238;48.730;11.566;2022-11-03T16:14:57;9.60;99.90
22145;DHT22;11238;48.730;11.566;2022-11-03T16:17:23;9.50;99.90
22145;DHT22;11238;48.730;11.566;2022-11-03T16:19:49;9.50;99.90
22145;DHT22;11238;48.730;11.566;2022-11-03T16:22:14;9.50;99.90
22145;DHT22;11238;48.730;11.566;2022-11-03T16:24:41;9.50;99.90
22145;DHT22;11238;48.730;11.566;2022-11-03T16:27:08;9.40;99.90
22145;DHT22;11238;48.730;11.566;2022-11-03T16:29:35;9.40;99.90
22145;DHT22;11238;48.730;11.566;2022-11-03T16:32:01;9.40;99.90
22145;DHT22;11238;48.730;11.566;2022-11-03T16:34:27;9.40;99.90
22145;DHT22;11238;48.730;11.566;2022-11-03T16:36:52;9.30;99.90
22145;DHT22;11238;48.730;11.566;2022-11-03T16:39:18;9.20;99.90
22145;DHT22;11238;48.730;11.566;2022-11-03T16:41:44;9.30;99.90